Time;durP1;ratioP1;P1;durP2;ratioP2;P2;SDS_P1;SDS_P2;PMS_P1;PMS_P2;Temp;Humidity;BMP_temperature;BMP_pressure;BME280_temperature;BME280_humidity;BME280_pressure;Samples;Min_cycle;Max_cycle;Signal;HPM_P1;HPM_P2
2024/02/25 00:01:16;;;;;;;1.42;1.20;;;17.40;52.70;;;;;;5115925;28;20184;-58
2024/02/25 00:03:41;;;;;;;1.48;1.20;;;17.40;52.70;;;;;;5115875;28;20169;-58
2024/02/25 00:06:07;;;;;;;2.40;1.38;;;17.40;52.70;;;;;;5115214;28;20204;-58
2024/02/25 00:08:32;;;;;;;1.70;1.17;;;17.40;52.80;;;;;;5134678;27;20615;-58
2024/02/25 00:11:01;;;;;;;1.25;1.13;;;17.30;52.70;;;;;;5136428;27;20180;-59
2024/02/25 00:13:27;;;;;;;1.40;1.30;;;17.30;52.70;;;;;;5134776;27;20627;-59
2024/02/25 00:15:52;;;;;;;1.10;1.05;;;17.30;52.70;;;;;;5136317;27;20191;-58
2024/02/25 00:18:18;;;;;;;1.48;1.30;;;17.30;52.70;;;;;;5114562;27;20174;-59
2024/02/25 00:20:43;;;;;;;1.30;1.20;;;17.30;52.70;;;;;;5114895;28;20179;-59
2024/02/25 00:23:09;;;;;;;1.35;1.27;;;17.20;52.50;;;;;;5115040;28;20504;-59
2024/02/25 00:25:37;;;;;;;2.15;1.30;;;17.20;52.60;;;;;;5115346;28;20671;-59
2024/02/25 00:28:03;;;;;;;1.20;1.05;;;17.20;52.60;;;;;;5114763;28;20173;-59
2024/02/25 00:30:29;;;;;;;1.75;1.10;;;17.20;52.60;;;;;;5114756;28;20177;-59
2024/02/25 00:32:54;;;;;;;1.05;0.95;;;17.20;52.70;;;;;;5114879;28;20503;-59
2024/02/25 00:35:20;;;;;;;1.77;1.20;;;17.20;52.60;;;;;;5114259;28;20173;-60
2024/02/25 00:37:49;;;;;;;1.27;1.17;;;17.10;52.60;;;;;;5115055;28;20181;-59
2024/02/25 00:40:15;;;;;;;2.17;1.20;;;17.10;52.60;;;;;;5113994;28;20173;-59
2024/02/25 00:42:41;;;;;;;1.98;1.00;;;17.10;52.60;;;;;;5114578;28;20188;-59
2024/02/25 00:45:07;;;;;;;1.65;1.48;;;17.10;52.60;;;;;;5113961;28;20173;-58
2024/02/25 00:47:35;;;;;;;3.08;1.30;;;17.10;53.30;;;;;;5113140;28;20784;-59
2024/02/25 00:50:01;;;;;;;1.80;1.10;;;17.10;52.60;;;;;;5114952;28;20554;-58
2024/02/25 00:52:27;;;;;;;1.77;1.13;;;17.00;52.60;;;;;;5114521;28;20188;-59
2024/02/25 00:54:53;;;;;;;2.17;1.13;;;17.00;52.60;;;;;;5114335;28;20316;-58
2024/02/25 00:57:19;;;;;;;1.88;1.40;;;17.00;52.50;;;;;;5113595;28;20676;-59
2024/02/25 00:59:48;;;;;;;0.90;0.90;;;17.00;52.40;;;;;;5114589;28;20184;-58
2024/02/25 01:02:13;;;;;;;1.30;1.20;;;17.00;52.60;;;;;;5112975;28;20237;-59
2024/02/25 01:04:39;;;;;;;1.27;1.10;;;17.00;52.50;;;;;;5114175;28;20703;-59
2024/02/25 01:07:04;;;;;;;1.70;1.30;;;17.00;52.60;;;;;;5114056;28;20208;-59
2024/02/25 01:09:30;;;;;;;0.98;0.98;;;16.90;52.50;;;;;;5113526;28;20169;-59
2024/02/25 01:11:57;;;;;;;1.10;1.02;;;16.90;52.60;;;;;;5114767;28;20263;-59
2024/02/25 01:14:24;;;;;;;1.30;1.20;;;16.90;52.50;;;;;;5114080;28;20512;-59
2024/02/25 01:16:49;;;;;;;1.75;1.13;;;16.90;52.50;;;;;;5113924;28;20202;-59
2024/02/25 01:19:17;;;;;;;1.33;1.23;;;16.90;52.50;;;;;;5114124;28;20518;-59
2024/02/25 01:21:43;;;;;;;1.88;1.35;;;16.90;52.50;;;;;;5114341;28;20181;-59
2024/02/25 01:24:08;;;;;;;1.02;0.90;;;16.80;52.50;;;;;;5112958;28;20176;-59
2024/02/25 01:26:40;;;;;;;1.00;1.00;;;16.80;52.50;;;;;;5114235;28;20307;-59
2024/02/25 01:29:07;;;;;;;1.20;1.10;;;16.80;52.50;;;;;;5114138;28;20260;-59
2024/02/25 01:31:33;;;;;;;2.58;1.10;;;16.80;52.50;;;;;;5113454;28;20524;-59
2024/02/25 01:33:59;;;;;;;1.38;0.98;;;16.80;52.30;;;;;;5114031;28;20508;-59
2024/02/25 01:36:24;;;;;;;1.08;1.00;;;16.80;52.40;;;;;;5113785;28;20180;-59
2024/02/25 01:38:50;;;;;;;1.25;0.90;;;16.70;52.30;;;;;;5113724;28;20181;-59
2024/02/25 01:41:15;;;;;;;2.42;1.38;;;16.80;52.50;;;;;;5113786;28;20169;-59
2024/02/25 01:43:41;;;;;;;2.55;0.95;;;16.70;52.50;;;;;;5113048;28;20169;-59
2024/02/25 01:46:07;;;;;;;1.40;1.10;;;16.70;52.50;;;;;;5113840;28;20209;-59
2024/02/25 01:48:33;;;;;;;1.15;1.05;;;16.70;52.40;;;;;;5112588;28;20169;-59
2024/02/25 01:50:58;;;;;;;1.50;1.10;;;16.70;52.50;;;;;;5112687;28;20173;-59
2024/02/25 01:53:24;;;;;;;0.90;0.80;;;16.70;52.50;;;;;;5113621;28;20206;-59
2024/02/25 01:55:50;;;;;;;1.27;1.10;;;16.70;52.40;;;;;;5112594;28;20169;-59
2024/02/25 01:58:16;;;;;;;3.03;1.30;;;16.70;52.50;;;;;;5110881;28;20217;-58
2024/02/25 02:00:42;;;;;;;1.10;1.00;;;16.60;52.40;;;;;;5113689;28;20185;-59
2024/02/25 02:03:07;;;;;;;1.67;1.20;;;16.70;52.50;;;;;;5113192;28;20176;-58
2024/02/25 02:05:34;;;;;;;2.92;1.38;;;16.60;52.50;;;;;;5112502;28;20765;-59
2024/02/25 02:08:00;;;;;;;1.00;0.77;;;16.60;52.50;;;;;;5112850;28;20181;-59
2024/02/25 02:10:25;;;;;;;1.27;1.10;;;16.60;52.60;;;;;;5112373;28;20173;-59
2024/02/25 02:12:51;;;;;;;1.65;1.10;;;16.60;52.60;;;;;;5112591;28;20168;-59
2024/02/25 02:15:16;;;;;;;1.60;1.10;;;16.60;52.50;;;;;;5111955;28;20628;-60
2024/02/25 02:17:43;;;;;;;1.40;1.10;;;16.60;52.60;;;;;;5113143;28;20181;-59
2024/02/25 02:20:11;;;;;;;1.10;1.00;;;16.60;52.60;;;;;;5112157;28;20184;-59
2024/02/25 02:22:40;;;;;;;1.60;1.33;;;16.60;52.60;;;;;;5113458;28;20177;-59
2024/02/25 02:25:06;;;;;;;1.42;1.08;;;16.60;52.60;;;;;;5113363;28;20542;-58
2024/02/25 02:27:32;;;;;;;1.10;1.00;;;16.50;52.60;;;;;;5111799;28;20244;-59
2024/02/25 02:29:57;;;;;;;1.10;1.00;;;16.50;52.60;;;;;;5113092;28;20211;-58
2024/02/25 02:32:23;;;;;;;1.52;0.90;;;16.50;52.60;;;;;;5112722;28;20741;-58
2024/02/25 02:34:49;;;;;;;2.65;1.20;;;16.50;53.20;;;;;;5112317;28;20197;-58
2024/02/25 02:37:14;;;;;;;1.20;1.10;;;16.50;52.70;;;;;;5112833;28;20245;-59
2024/02/25 02:39:40;;;;;;;1.30;1.20;;;16.50;52.70;;;;;;5112953;28;20635;-59
2024/02/25 02:42:05;;;;;;;1.15;1.00;;;16.50;52.70;;;;;;5112266;28;20177;-59
2024/02/25 02:44:31;;;;;;;1.63;1.05;;;16.50;52.80;;;;;;5112402;28;20260;-59
2024/02/25 02:46:57;;;;;;;1.25;1.10;;;16.50;52.70;;;;;;5111315;28;20219;-58
2024/02/25 02:49:22;;;;;;;1.83;1.00;;;16.50;52.70;;;;;;5112320;28;20631;-59
2024/02/25 02:51:48;;;;;;;0.95;0.95;;;16.50;52.80;;;;;;5112766;28;20172;-59
2024/02/25 02:54:13;;;;;;;1.30;1.17;;;16.50;52.90;;;;;;5111235;28;20542;-59
2024/02/25 02:56:39;;;;;;;1.30;1.02;;;16.40;52.80;;;;;;5112322;28;20587;-60
2024/02/25 02:59:04;;;;;;;1.90;1.25;;;16.50;52.90;;;;;;5112473;28;20173;-58
2024/02/25 03:01:30;;;;;;;1.15;0.70;;;16.40;52.90;;;;;;5111457;28;20643;-58
2024/02/25 03:03:56;;;;;;;1.33;1.10;;;16.50;53.00;;;;;;5112564;28;20169;-58
2024/02/25 03:06:21;;;;;;;1.13;0.82;;;16.40;53.00;;;;;;5112186;28;20246;-58
2024/02/25 03:08:47;;;;;;;1.05;0.90;;;16.40;53.00;;;;;;5111986;28;20214;-59
2024/02/25 03:11:12;;;;;;;1.27;0.77;;;16.40;53.00;;;;;;5112241;28;20172;-59
2024/02/25 03:13:38;;;;;;;1.00;0.88;;;16.40;53.00;;;;;;5112515;28;20165;-59
2024/02/25 03:16:03;;;;;;;0.80;0.80;;;16.40;53.10;;;;;;5111802;28;20173;-58
2024/02/25 03:18:29;;;;;;;0.80;0.80;;;16.40;53.10;;;;;;5112133;28;20259;-59
2024/02/25 03:20:55;;;;;;;2.08;1.20;;;16.40;53.10;;;;;;5112477;28;20556;-59
2024/02/25 03:23:21;;;;;;;1.77;0.90;;;16.40;53.10;;;;;;5111589;28;20204;-60
2024/02/25 03:25:46;;;;;;;1.38;1.05;;;16.40;53.10;;;;;;5112280;28;20643;-59
2024/02/25 03:28:12;;;;;;;1.08;0.98;;;16.40;53.10;;;;;;5116459;28;20176;-58
2024/02/25 03:30:37;;;;;;;0.73;0.73;;;16.30;53.80;;;;;;5115994;28;20554;-58
2024/02/25 03:33:05;;;;;;;0.80;0.80;;;16.30;53.10;;;;;;5116538;28;20233;-58
2024/02/25 03:35:31;;;;;;;1.02;0.88;;;16.30;53.20;;;;;;5116509;28;20183;-59
2024/02/25 03:37:56;;;;;;;1.58;1.00;;;16.30;53.00;;;;;;5115600;28;20644;-58
2024/02/25 03:40:22;;;;;;;0.95;0.82;;;16.30;53.10;;;;;;5116052;28;20180;-58
2024/02/25 03:42:48;;;;;;;1.15;1.05;;;16.30;53.20;;;;;;5116484;28;20173;-59
2024/02/25 03:45:14;;;;;;;2.28;0.80;;;16.30;53.20;;;;;;5115242;28;20176;-58
2024/02/25 03:47:40;;;;;;;1.58;0.93;;;16.30;53.20;;;;;;5116146;28;20656;-58
2024/02/25 03:50:06;;;;;;;0.98;0.90;;;16.30;53.30;;;;;;5115555;28;20201;-57
2024/02/25 03:52:32;;;;;;;1.05;0.95;;;16.30;53.20;;;;;;5115819;28;20195;-58
2024/02/25 03:54:57;;;;;;;1.17;0.75;;;16.30;53.30;;;;;;5115863;28;20656;-59
2024/02/25 03:57:23;;;;;;;0.90;0.90;;;16.30;53.30;;;;;;5114700;28;20228;-58
2024/02/25 03:59:48;;;;;;;1.00;0.90;;;16.30;53.20;;;;;;5115899;28;20184;-58
2024/02/25 04:02:14;;;;;;;1.17;0.80;;;16.30;53.40;;;;;;5115654;28;20176;-58
2024/02/25 04:04:46;;;;;;;0.70;0.70;;;16.20;53.20;;;;;;5115545;28;20206;-59
2024/02/25 04:07:12;;;;;;;0.85;0.80;;;16.20;53.30;;;;;;5115600;28;20706;-58
2024/02/25 04:09:38;;;;;;;0.80;0.80;;;16.20;53.30;;;;;;5115932;28;20538;-58
2024/02/25 04:12:04;;;;;;;0.82;0.80;;;16.20;53.40;;;;;;5114995;28;20695;-58
2024/02/25 04:14:31;;;;;;;2.30;0.93;;;16.20;53.40;;;;;;5114845;28;20206;-59
2024/02/25 04:16:57;;;;;;;1.05;0.75;;;16.20;53.40;;;;;;5115630;28;20561;-58
2024/02/25 04:19:22;;;;;;;1.20;1.10;;;16.20;53.30;;;;;;5114854;28;20172;-58
2024/02/25 04:21:48;;;;;;;1.40;1.20;;;16.20;53.30;;;;;;5115866;28;20177;-58
2024/02/25 04:24:13;;;;;;;1.05;0.93;;;16.20;53.30;;;;;;5115481;28;20176;-58
2024/02/25 04:26:42;;;;;;;0.95;0.90;;;16.20;53.40;;;;;;5114914;28;20215;-59
2024/02/25 04:29:08;;;;;;;0.70;0.68;;;16.20;53.30;;;;;;5115336;28;20176;-58
2024/02/25 04:31:33;;;;;;;1.20;0.80;;;16.20;53.40;;;;;;5115733;28;20173;-58
2024/02/25 04:34:02;;;;;;;0.82;0.70;;;16.10;53.30;;;;;;5114783;28;20173;-57
2024/02/25 04:36:28;;;;;;;1.00;0.85;;;16.10;53.40;;;;;;5114550;28;20188;-58
2024/02/25 04:38:53;;;;;;;1.02;0.88;;;16.20;53.40;;;;;;5113675;28;20165;-58
2024/02/25 04:41:20;;;;;;;1.30;0.80;;;16.10;53.40;;;;;;5114138;28;20173;-58
2024/02/25 04:43:45;;;;;;;1.13;0.80;;;16.10;53.40;;;;;;5114429;28;20173;-58
2024/02/25 04:46:11;;;;;;;0.70;0.70;;;16.10;53.40;;;;;;5114419;28;20236;-58
2024/02/25 04:48:38;;;;;;;0.75;0.75;;;16.10;53.40;;;;;;5114232;28;20234;-59
2024/02/25 04:51:03;;;;;;;0.75;0.68;;;16.10;53.40;;;;;;5114668;28;20180;-58
2024/02/25 04:53:29;;;;;;;1.35;0.95;;;16.10;53.40;;;;;;5113847;28;20172;-58
2024/02/25 04:55:57;;;;;;;0.65;0.65;;;16.10;53.40;;;;;;5114875;28;20196;-58
2024/02/25 04:58:23;;;;;;;1.70;1.08;;;16.10;53.40;;;;;;5114217;28;20240;-58
2024/02/25 05:00:48;;;;;;;0.68;0.68;;;16.10;53.40;;;;;;5114113;28;20173;-58
2024/02/25 05:03:14;;;;;;;1.02;0.70;;;16.10;53.40;;;;;;5114414;28;20165;-58
2024/02/25 05:05:39;;;;;;;0.68;0.60;;;16.10;53.40;;;;;;5114752;28;20255;-58
2024/02/25 05:08:05;;;;;;;0.80;0.73;;;16.10;53.40;;;;;;5113924;28;20173;-58
2024/02/25 05:10:31;;;;;;;0.73;0.60;;;16.10;53.40;;;;;;5114192;27;20175;-58
2024/02/25 05:12:56;;;;;;;0.60;0.60;;;16.00;53.30;;;;;;5114511;28;20302;-59
2024/02/25 05:15:22;;;;;;;0.75;0.65;;;16.00;53.30;;;;;;5113547;28;20165;-58
2024/02/25 05:17:47;;;;;;;0.80;0.80;;;16.00;53.30;;;;;;5114292;28;20165;-59
2024/02/25 05:20:14;;;;;;;0.80;0.70;;;16.00;53.30;;;;;;5113717;28;20501;-59
2024/02/25 05:22:39;;;;;;;0.80;0.68;;;16.00;53.30;;;;;;5113827;28;20173;-59
2024/02/25 05:25:05;;;;;;;0.90;0.80;;;16.00;53.30;;;;;;5114292;28;20513;-58
2024/02/25 05:27:36;;;;;;;0.98;0.63;;;16.00;53.30;;;;;;5113741;28;20859;-58
2024/02/25 05:30:03;;;;;;;0.50;0.50;;;16.00;53.30;;;;;;5113611;28;20175;-58
2024/02/25 05:32:29;;;;;;;1.40;0.85;;;16.00;53.30;;;;;;5113925;28;20185;-58
2024/02/25 05:34:54;;;;;;;0.63;0.60;;;16.00;53.30;;;;;;5114171;28;20218;-57
2024/02/25 05:37:22;;;;;;;0.73;0.73;;;16.00;53.40;;;;;;5113101;28;20176;-58
2024/02/25 05:39:47;;;;;;;0.70;0.70;;;15.90;53.30;;;;;;5114099;28;20230;-58
2024/02/25 05:42:13;;;;;;;0.70;0.70;;;16.00;53.40;;;;;;5113696;28;20619;-58
2024/02/25 05:44:39;;;;;;;0.65;0.60;;;16.00;53.40;;;;;;5113488;28;20165;-58
2024/02/25 05:47:05;;;;;;;0.60;0.60;;;15.90;53.40;;;;;;5113882;28;20578;-58
2024/02/25 05:49:30;;;;;;;1.27;0.70;;;15.90;53.40;;;;;;5113441;28;20169;-58
2024/02/25 05:51:59;;;;;;;0.55;0.50;;;15.90;53.40;;;;;;5113174;28;20644;-58
2024/02/25 05:54:24;;;;;;;0.60;0.60;;;15.90;53.50;;;;;;5113490;28;20208;-58
2024/02/25 05:56:50;;;;;;;0.50;0.50;;;15.90;53.40;;;;;;5112662;28;20256;-58
2024/02/25 05:59:15;;;;;;;1.30;0.50;;;15.90;53.50;;;;;;5113474;28;20249;-58
2024/02/25 06:01:47;;;;;;;1.10;0.60;;;15.90;53.50;;;;;;5113642;28;20276;-58
2024/02/25 06:04:13;;;;;;;0.68;0.68;;;15.90;53.60;;;;;;5112703;28;20169;-57
2024/02/25 06:06:39;;;;;;;0.75;0.75;;;15.90;53.50;;;;;;5113534;28;20240;-59
2024/02/25 06:09:05;;;;;;;0.70;0.70;;;15.90;53.60;;;;;;5113553;28;20180;-58
2024/02/25 06:11:31;;;;;;;0.80;0.80;;;15.90;53.60;;;;;;5112748;28;20174;-59
2024/02/25 06:13:56;;;;;;;0.45;0.45;;;15.90;53.60;;;;;;5113751;28;20180;-58
2024/02/25 06:16:22;;;;;;;0.50;0.50;;;15.80;53.50;;;;;;5113259;28;20170;-59
2024/02/25 06:18:48;;;;;;;0.50;0.50;;;15.90;53.60;;;;;;5112906;28;20176;-58
2024/02/25 06:21:14;;;;;;;0.80;0.70;;;15.90;53.60;;;;;;5112189;28;20204;-58
2024/02/25 06:23:39;;;;;;;0.50;0.50;;;15.80;53.60;;;;;;5112361;28;20244;-58
2024/02/25 06:26:05;;;;;;;1.00;0.70;;;15.80;53.60;;;;;;5111644;28;20209;-58
2024/02/25 06:28:32;;;;;;;0.65;0.57;;;15.80;53.60;;;;;;5113087;28;20185;-58
2024/02/25 06:30:57;;;;;;;0.50;0.50;;;15.80;53.60;;;;;;5112577;28;20628;-57
2024/02/25 06:33:23;;;;;;;1.27;0.70;;;15.80;53.60;;;;;;5111886;28;20199;-58
2024/02/25 06:35:53;;;;;;;0.63;0.60;;;15.80;53.60;;;;;;5113035;28;20165;-57
2024/02/25 06:38:18;;;;;;;0.57;0.50;;;15.80;53.70;;;;;;5112473;28;20201;-58
2024/02/25 06:40:44;;;;;;;0.60;0.60;;;15.80;53.70;;;;;;5112418;28;20252;-57
2024/02/25 06:43:12;;;;;;;1.27;0.60;;;15.80;53.70;;;;;;5112772;28;20177;-58
2024/02/25 06:45:38;;;;;;;0.60;0.60;;;15.80;53.70;;;;;;5112788;28;20676;-58
2024/02/25 06:48:04;;;;;;;0.75;0.70;;;15.80;53.70;;;;;;5112188;28;20181;-57
2024/02/25 06:50:29;;;;;;;0.57;0.57;;;15.80;53.70;;;;;;5112615;28;20192;-58
2024/02/25 06:52:54;;;;;;;0.60;0.60;;;15.80;53.70;;;;;;5112058;28;20682;-58
2024/02/25 06:55:20;;;;;;;0.50;0.50;;;15.90;53.70;;;;;;5111437;28;20265;-58
2024/02/25 06:57:46;;;;;;;0.50;0.40;;;15.90;53.60;;;;;;5112470;28;20307;-58
2024/02/25 07:00:12;;;;;;;0.88;0.88;;;15.90;53.60;;;;;;5111238;28;20208;-57
2024/02/25 07:02:37;;;;;;;0.38;0.38;;;15.90;53.60;;;;;;5112394;28;20174;-57
2024/02/25 07:05:04;;;;;;;0.73;0.57;;;16.00;53.70;;;;;;5112596;28;20173;-57
2024/02/25 07:07:29;;;;;;;0.85;0.40;;;16.00;53.70;;;;;;5111307;28;20227;-57
2024/02/25 07:09:57;;;;;;;0.63;0.60;;;16.10;53.80;;;;;;5112791;28;20173;-58
2024/02/25 07:12:23;;;;;;;0.93;0.60;;;16.00;53.80;;;;;;5112142;28;20177;-58
2024/02/25 07:14:49;;;;;;;1.23;0.65;;;16.10;53.80;;;;;;5112014;28;20173;-58
2024/02/25 07:17:14;;;;;;;0.70;0.60;;;16.10;53.80;;;;;;5112308;28;20168;-58
2024/02/25 07:19:46;;;;;;;0.93;0.50;;;16.00;53.80;;;;;;5112475;28;20545;-58
2024/02/25 07:22:12;;;;;;;0.47;0.47;;;16.00;53.80;;;;;;5111442;28;20188;-58
2024/02/25 07:24:39;;;;;;;0.47;0.45;;;16.00;53.80;;;;;;5112510;28;20546;-58
2024/02/25 07:27:05;;;;;;;0.47;0.47;;;16.00;53.80;;;;;;5112249;28;20212;-58
2024/02/25 07:29:31;;;;;;;0.50;0.50;;;16.00;53.80;;;;;;5111425;28;20180;-58
2024/02/25 07:31:57;;;;;;;1.38;0.60;;;16.00;53.80;;;;;;5112360;28;20177;-58
2024/02/25 07:34:23;;;;;;;0.38;0.38;;;16.00;53.90;;;;;;5111946;28;20177;-58
2024/02/25 07:36:48;;;;;;;0.65;0.60;;;16.10;53.80;;;;;;5111576;28;20226;-58
2024/02/25 07:39:14;;;;;;;1.45;0.60;;;16.10;53.80;;;;;;5111582;28;20188;-57
2024/02/25 07:41:40;;;;;;;0.40;0.40;;;16.10;53.80;;;;;;5112280;28;20220;-58
2024/02/25 07:44:05;;;;;;;0.43;0.43;;;16.10;53.90;;;;;;5110853;28;20165;-58
2024/02/25 07:46:31;;;;;;;0.95;0.50;;;16.10;53.90;;;;;;5111516;28;20224;-58
2024/02/25 07:48:58;;;;;;;0.70;0.60;;;16.10;53.90;;;;;;5111970;28;20227;-58
2024/02/25 07:51:24;;;;;;;0.50;0.50;;;16.10;53.90;;;;;;5110943;28;20252;-58
2024/02/25 07:53:50;;;;;;;0.75;0.50;;;16.10;53.90;;;;;;5112270;28;20593;-59
2024/02/25 07:56:19;;;;;;;0.70;0.70;;;16.00;53.90;;;;;;5110962;28;20191;-58
2024/02/25 07:58:45;;;;;;;0.57;0.40;;;16.10;54.00;;;;;;5111900;28;20696;-58
2024/02/25 08:01:11;;;;;;;0.50;0.50;;;16.10;54.00;;;;;;5111567;28;20632;-57
2024/02/25 08:03:36;;;;;;;0.50;0.50;;;16.10;53.90;;;;;;5110477;28;20223;-58
2024/02/25 08:06:02;;;;;;;0.70;0.70;;;16.10;53.80;;;;;;5111742;28;20213;-58
2024/02/25 08:08:28;;;;;;;0.52;0.52;;;16.10;53.80;;;;;;5111789;28;20991;-58
2024/02/25 08:10:54;;;;;;;0.80;0.77;;;16.10;53.70;;;;;;5110629;28;20260;-59
2024/02/25 08:13:19;;;;;;;0.80;0.60;;;16.10;53.80;;;;;;5114253;28;20169;-60
2024/02/25 08:15:45;;;;;;;1.23;0.88;;;16.10;54.00;;;;;;5115824;28;20180;-60
2024/02/25 08:18:10;;;;;;;0.95;0.50;;;16.10;53.80;;;;;;5114685;28;20165;-60
2024/02/25 08:20:36;;;;;;;0.57;0.57;;;16.10;53.90;;;;;;5115850;28;20195;-60
2024/02/25 08:23:01;;;;;;;1.13;0.70;;;16.10;54.30;;;;;;5115742;28;20227;-60
2024/02/25 08:25:27;;;;;;;0.80;0.80;;;16.10;54.20;;;;;;5114711;28;20173;-59
2024/02/25 08:27:53;;;;;;;0.60;0.60;;;16.10;55.00;;;;;;5115597;28;20216;-60
2024/02/25 08:30:20;;;;;;;0.68;0.68;;;16.10;54.90;;;;;;5115210;28;20169;-59
2024/02/25 08:32:45;;;;;;;1.08;0.75;;;16.10;54.70;;;;;;5114681;28;20212;-59
2024/02/25 08:35:11;;;;;;;0.43;0.43;;;16.20;54.80;;;;;;5115225;28;20258;-59
2024/02/25 08:37:37;;;;;;;0.95;0.73;;;16.20;54.90;;;;;;5115322;28;20173;-59
2024/02/25 08:40:03;;;;;;;0.85;0.70;;;16.20;55.00;;;;;;5114693;28;20195;-58
2024/02/25 08:42:28;;;;;;;0.88;0.75;;;16.20;55.00;;;;;;5114891;28;20185;-59
2024/02/25 08:44:54;;;;;;;0.70;0.60;;;16.20;55.00;;;;;;5114992;28;20181;-59
2024/02/25 08:47:20;;;;;;;2.25;0.90;;;16.20;54.80;;;;;;5114037;28;20204;-59
2024/02/25 08:49:45;;;;;;;0.80;0.80;;;16.20;54.80;;;;;;5115071;28;20683;-59
2024/02/25 08:52:11;;;;;;;0.50;0.50;;;16.20;54.80;;;;;;5114659;28;20187;-59
2024/02/25 08:54:37;;;;;;;0.63;0.63;;;16.20;55.10;;;;;;5114518;28;20195;-60
2024/02/25 08:57:02;;;;;;;1.00;0.70;;;16.20;55.00;;;;;;5114709;28;20252;-59
2024/02/25 08:59:28;;;;;;;0.50;0.50;;;16.10;55.10;;;;;;5114560;28;20208;-59
2024/02/25 09:01:54;;;;;;;0.68;0.68;;;16.10;55.10;;;;;;5113794;28;20534;-58
2024/02/25 09:04:19;;;;;;;0.60;0.50;;;16.10;55.10;;;;;;5114531;28;20165;-59
2024/02/25 09:06:45;;;;;;;0.60;0.50;;;16.20;55.20;;;;;;5114237;28;20216;-59
2024/02/25 09:09:10;;;;;;;0.93;0.70;;;16.20;55.20;;;;;;5114356;28;20166;-59
2024/02/25 09:11:36;;;;;;;1.10;0.60;;;16.20;55.10;;;;;;5114377;28;20208;-59
2024/02/25 09:14:01;;;;;;;0.60;0.60;;;16.30;55.10;;;;;;5114005;28;20267;-59
2024/02/25 09:16:28;;;;;;;0.60;0.60;;;16.30;55.10;;;;;;5114267;28;20523;-60
2024/02/25 09:18:53;;;;;;;0.77;0.60;;;16.30;55.10;;;;;;5114477;28;20173;-59
2024/02/25 09:21:19;;;;;;;0.93;0.57;;;16.30;55.20;;;;;;5113487;28;20325;-59
2024/02/25 09:23:44;;;;;;;1.45;0.70;;;16.30;55.10;;;;;;5113783;28;20173;-61
2024/02/25 09:26:10;;;;;;;0.45;0.40;;;16.30;55.20;;;;;;5114098;28;20227;-59
2024/02/25 09:28:36;;;;;;;0.75;0.60;;;16.30;55.20;;;;;;5113527;28;20260;-59
2024/02/25 09:31:01;;;;;;;1.17;0.60;;;16.30;55.00;;;;;;5114056;28;20181;-59
2024/02/25 09:33:29;;;;;;;1.35;0.93;;;16.20;55.20;;;;;;5113879;28;20177;-59
2024/02/25 09:35:56;;;;;;;0.65;0.50;;;16.20;55.30;;;;;;5113756;28;20213;-59
2024/02/25 09:38:22;;;;;;;0.60;0.60;;;16.20;55.30;;;;;;5113943;28;20266;-59
2024/02/25 09:40:50;;;;;;;0.60;0.60;;;16.20;55.30;;;;;;5114141;28;20691;-59
2024/02/25 09:43:16;;;;;;;1.70;0.88;;;16.30;55.30;;;;;;5095190;28;20620;-59
2024/02/25 09:45:42;;;;;;;1.30;0.60;;;16.30;55.30;;;;;;5112685;28;20525;-59
2024/02/25 09:48:10;;;;;;;0.63;0.50;;;16.30;55.30;;;;;;5112714;28;20177;-59
2024/02/25 09:50:36;;;;;;;0.73;0.73;;;16.40;55.30;;;;;;5113308;28;20199;-59
2024/02/25 09:53:02;;;;;;;0.75;0.57;;;16.40;55.30;;;;;;5112839;28;20185;-59
2024/02/25 09:55:27;;;;;;;0.60;0.60;;;16.40;55.30;;;;;;5113634;28;20223;-59
2024/02/25 09:57:53;;;;;;;0.60;0.60;;;16.40;55.30;;;;;;5112616;28;20578;-59
2024/02/25 10:00:19;;;;;;;1.17;0.60;;;16.40;55.30;;;;;;5113122;28;20607;-58
2024/02/25 10:02:45;;;;;;;0.50;0.50;;;16.30;55.30;;;;;;5113604;28;20632;-59
2024/02/25 10:05:14;;;;;;;1.98;0.57;;;16.30;55.30;;;;;;5112467;28;20201;-58
2024/02/25 10:07:40;;;;;;;0.50;0.50;;;16.30;55.40;;;;;;5113590;28;20216;-59
2024/02/25 10:10:06;;;;;;;0.55;0.55;;;16.30;55.40;;;;;;5112970;28;20237;-59
2024/02/25 10:12:31;;;;;;;0.90;0.77;;;16.30;55.40;;;;;;5113094;28;20573;-59
2024/02/25 10:14:57;;;;;;;0.85;0.50;;;16.30;55.50;;;;;;5113133;28;20173;-59
2024/02/25 10:17:23;;;;;;;0.85;0.47;;;16.40;55.40;;;;;;5112424;28;20177;-59
2024/02/25 10:19:53;;;;;;;0.93;0.60;;;16.40;55.40;;;;;;5113450;28;20173;-59
2024/02/25 10:22:18;;;;;;;1.80;0.80;;;16.40;55.30;;;;;;5112911;28;20259;-59
2024/02/25 10:24:44;;;;;;;0.60;0.60;;;16.40;55.30;;;;;;5112719;28;20268;-59
2024/02/25 10:27:11;;;;;;;0.40;0.40;;;16.50;55.30;;;;;;5112840;28;20241;-59
2024/02/25 10:29:52;;;;;;;0.60;0.60;;;16.40;55.20;;;;;;5112833;28;20223;-59
2024/02/25 10:32:24;;;;;;;1.48;0.70;;;16.40;55.30;;;;;;5111901;28;20708;-59
2024/02/25 10:34:52;;;;;;;0.85;0.55;;;16.40;55.30;;;;;;5112781;28;20261;-59
2024/02/25 10:37:20;;;;;;;0.60;0.60;;;16.30;55.30;;;;;;5111896;28;20191;-58
2024/02/25 10:39:46;;;;;;;0.60;0.60;;;16.30;55.30;;;;;;5112275;28;20173;-59
2024/02/25 10:42:12;;;;;;;0.90;0.50;;;16.30;55.40;;;;;;5111239;28;20949;-63
2024/02/25 10:44:37;;;;;;;0.55;0.50;;;16.40;55.50;;;;;;5111641;28;20168;-62
2024/02/25 10:47:03;;;;;;;1.73;0.60;;;16.40;55.50;;;;;;5109444;28;20270;-61
2024/02/25 10:49:28;;;;;;;0.52;0.52;;;16.40;55.50;;;;;;5094077;28;20173;-61
2024/02/25 10:51:54;;;;;;;0.95;0.70;;;16.40;55.30;;;;;;5094479;28;20173;-63
2024/02/25 10:54:19;;;;;;;2.25;0.77;;;16.40;55.70;;;;;;5111572;28;20191;-63
2024/02/25 10:56:45;;;;;;;4.82;1.02;;;16.40;55.90;;;;;;5094407;28;20304;-64
2024/02/25 10:59:11;;;;;;;3.00;1.02;;;16.40;55.30;;;;;;5111032;28;20172;-63
2024/02/25 11:01:38;;;;;;;2.58;0.88;;;16.40;55.80;;;;;;5110887;28;20173;-63
2024/02/25 11:04:05;;;;;;;4.65;0.95;;;16.40;55.40;;;;;;5111690;28;20169;-63
2024/02/25 11:06:37;;;;;;;0.95;0.75;;;16.40;55.70;;;;;;5110019;28;20219;-62
2024/02/25 11:09:12;;;;;;;4.22;0.73;;;16.40;55.50;;;;;;5111385;28;20624;-64
2024/02/25 11:11:38;;;;;;;8.05;1.00;;;16.50;55.50;;;;;;5111861;28;20261;-66
2024/02/25 11:14:16;;;;;;;2.03;0.93;;;16.60;55.70;;;;;;5111969;28;20169;-66
2024/02/25 11:16:48;;;;;;;4.47;0.80;;;16.60;55.70;;;;;;5112626;28;20207;-65
2024/02/25 11:19:22;;;;;;;1.90;0.75;;;16.70;55.80;;;;;;5111914;28;20302;-65
2024/02/25 11:21:54;;;;;;;3.95;1.05;;;16.70;55.80;;;;;;5111648;28;20267;-65
2024/02/25 11:24:49;;;;;;;0.75;0.70;;;16.70;55.90;;;;;;5112287;28;20180;-64
2024/02/25 11:27:17;;;;;;;2.00;0.68;;;16.70;56.00;;;;;;5111370;28;20224;-65
2024/02/25 11:29:43;;;;;;;1.88;0.70;;;16.70;56.10;;;;;;5111732;28;20256;-64
2024/02/25 11:32:09;;;;;;;0.82;0.55;;;16.70;56.20;;;;;;5111887;28;20712;-65
2024/02/25 11:34:35;;;;;;;1.25;0.65;;;16.70;56.20;;;;;;5110321;28;20179;-65
2024/02/25 11:37:02;;;;;;;3.33;1.63;;;16.70;56.30;;;;;;5112100;28;20678;-66
2024/02/25 11:39:29;;;;;;;1.08;0.80;;;16.60;56.40;;;;;;5111193;28;20188;-66
2024/02/25 11:42:00;;;;;;;2.38;0.68;;;16.60;56.50;;;;;;5110941;28;20652;-66
2024/02/25 11:44:26;;;;;;;1.90;0.60;;;16.70;56.50;;;;;;5111411;28;20231;-64
2024/02/25 11:46:56;;;;;;;2.10;0.70;;;16.70;56.50;;;;;;5112682;28;20220;-61
2024/02/25 11:49:23;;;;;;;3.20;1.10;;;16.70;56.50;;;;;;5114893;28;20173;-63
2024/02/25 11:51:48;;;;;;;1.77;0.82;;;16.80;56.50;;;;;;5115665;28;20173;-61
2024/02/25 11:54:14;;;;;;;1.98;0.80;;;16.80;57.10;;;;;;5115027;28;20293;-63
2024/02/25 11:56:39;;;;;;;2.85;1.13;;;16.80;56.70;;;;;;5114846;28;20217;-63
2024/02/25 11:59:10;;;;;;;4.03;0.80;;;16.80;57.10;;;;;;5115703;28;20664;-63
2024/02/25 12:01:37;;;;;;;3.10;0.85;;;16.70;57.00;;;;;;5114384;28;20189;-64
2024/02/25 12:04:02;;;;;;;9.98;1.50;;;16.70;57.30;;;;;;5115045;28;20264;-63
2024/02/25 12:06:34;;;;;;;2.80;0.85;;;16.70;57.40;;;;;;5115462;28;20367;-63
2024/02/25 12:09:05;;;;;;;2.15;0.70;;;16.60;57.40;;;;;;5116047;28;20184;-64
2024/02/25 12:11:33;;;;;;;2.67;1.00;;;16.60;57.40;;;;;;5114855;28;20264;-64
2024/02/25 12:14:01;;;;;;;2.38;0.77;;;16.60;57.60;;;;;;5115705;28;20177;-64
2024/02/25 12:16:30;;;;;;;4.05;0.90;;;16.60;57.40;;;;;;5115453;28;20546;-63
2024/02/25 12:18:59;;;;;;;1.63;1.20;;;16.50;57.50;;;;;;5113663;28;20218;-64
2024/02/25 12:21:26;;;;;;;2.90;0.90;;;16.60;57.40;;;;;;5112985;28;20191;-64
2024/02/25 12:23:55;;;;;;;2.58;0.90;;;16.50;57.50;;;;;;5114379;28;20229;-64
2024/02/25 12:26:20;;;;;;;2.03;0.80;;;16.50;57.60;;;;;;5114900;28;20212;-64
2024/02/25 12:28:46;;;;;;;3.70;1.55;;;16.50;57.60;;;;;;5114617;28;20173;-63
2024/02/25 12:31:11;;;;;;;1.95;0.90;;;16.50;57.60;;;;;;5114582;28;20177;-63
2024/02/25 12:33:37;;;;;;;1.55;1.00;;;16.40;57.70;;;;;;5114399;28;20251;-64
2024/02/25 12:36:04;;;;;;;1.20;0.90;;;16.40;57.70;;;;;;5115560;27;20252;-64
2024/02/25 12:38:30;;;;;;;2.28;1.30;;;16.40;57.80;;;;;;5113093;28;20204;-64
2024/02/25 12:40:57;;;;;;;2.28;1.05;;;16.40;57.70;;;;;;5115291;28;20542;-64
2024/02/25 12:43:22;;;;;;;2.28;0.70;;;16.40;57.90;;;;;;5114966;28;20173;-63